sensor_id;sensor_type;location;lat;lon;timestamp;temperature;humidity
37788;DHT22;23627;53.302;-6.362;2022-10-23T00:01:40;13.80;99.90
37788;DHT22;23627;53.302;-6.362;2022-10-23T00:04:12;13.80;99.90
37788;DHT22;23627;53.302;-6.362;2022-10-23T00:06:39;13.80;99.90
37788;DHT22;23627;53.302;-6.362;2022-10-23T00:09:06;13.70;99.90
37788;DHT22;23627;53.302;-6.362;2022-10-23T00:11:33;13.70;99.90
37788;DHT22;23627;53.302;-6.362;2022-10-23T00:14:04;13.80;99.90
37788;DHT22;23627;53.302;-6.362;2022-10-23T00:16:30;13.80;99.90
37788;DHT22;23627;53.302;-6.362;2022-10-23T00:18:56;13.70;99.90
37788;DHT22;23627;53.302;-6.362;2022-10-23T00:21:23;13.80;99.90
37788;DHT22;23627;53.302;-6.362;2022-10-23T00:23:49;13.80;99.90
37788;DHT22;23627;53.302;-6.362;2022-10-23T00:26:15;13.80;99.90
37788;DHT22;23627;53.302;-6.362;2022-10-23T00:28:46;13.70;99.90
37788;DHT22;23627;53.302;-6.362;2022-10-23T00:31:12;13.70;99.90
37788;DHT22;23627;53.302;-6.362;2022-10-23T00:33:38;13.70;99.90
37788;DHT22;23627;53.302;-6.362;2022-10-23T00:36:06;13.70;99.90
37788;DHT22;23627;53.302;-6.362;2022-10-23T00:38:32;13.70;99.90
37788;DHT22;23627;53.302;-6.362;2022-10-23T00:40:58;13.70;99.90
37788;DHT22;23627;53.302;-6.362;2022-10-23T00:43:26;13.70;99.90
37788;DHT22;23627;53.302;-6.362;2022-10-23T00:45:53;13.60;99.90
37788;DHT22;23627;53.302;-6.362;2022-10-23T00:48:18;13.60;99.90
37788;DHT22;23627;53.302;-6.362;2022-10-23T00:50:46;13.60;99.90
37788;DHT22;23627;53.302;-6.362;2022-10-23T00:53:12;13.60;99.90
37788;DHT22;23627;53.302;-6.362;2022-10-23T00:55:40;13.60;99.90
37788;DHT22;23627;53.302;-6.362;2022-10-23T00:58:12;13.60;99.90
37788;DHT22;23627;53.302;-6.362;2022-10-23T01:00:46;13.60;99.90
37788;DHT22;23627;53.302;-6.362;2022-10-23T01:03:14;13.60;99.90
37788;DHT22;23627;53.302;-6.362;2022-10-23T01:05:57;13.60;99.90
37788;DHT22;23627;53.302;-6.362;2022-10-23T01:08:33;13.60;99.90
37788;DHT22;23627;53.302;-6.362;2022-10-23T01:16:26;13.50;99.90
37788;DHT22;23627;53.302;-6.362;2022-10-23T01:21:54;13.60;99.90
37788;DHT22;23627;53.302;-6.362;2022-10-23T01:27:19;13.60;99.90
37788;DHT22;23627;53.302;-6.362;2022-10-23T01:30:04;13.50;99.90
37788;DHT22;23627;53.302;-6.362;2022-10-23T01:37:46;13.50;99.90
37788;DHT22;23627;53.302;-6.362;2022-10-23T01:40:21;13.50;99.90
37788;DHT22;23627;53.302;-6.362;2022-10-23T01:42:53;13.40;99.90
37788;DHT22;23627;53.302;-6.362;2022-10-23T01:45:38;13.40;99.90
37788;DHT22;23627;53.302;-6.362;2022-10-23T01:48:08;13.40;99.90
37788;DHT22;23627;53.302;-6.362;2022-10-23T01:50:38;13.40;99.90
37788;DHT22;23627;53.302;-6.362;2022-10-23T01:53:04;13.40;99.90
37788;DHT22;23627;53.302;-6.362;2022-10-23T01:55:32;13.40;99.90
37788;DHT22;23627;53.302;-6.362;2022-10-23T01:57:59;13.40;99.90
37788;DHT22;23627;53.302;-6.362;2022-10-23T02:00:27;13.40;99.90
37788;DHT22;23627;53.302;-6.362;2022-10-23T02:02:54;13.40;99.90
37788;DHT22;23627;53.302;-6.362;2022-10-23T02:05:26;13.40;99.90
37788;DHT22;23627;53.302;-6.362;2022-10-23T02:07:53;13.40;99.90
37788;DHT22;23627;53.302;-6.362;2022-10-23T02:10:20;13.40;99.90
37788;DHT22;23627;53.302;-6.362;2022-10-23T02:12:53;13.50;99.90
37788;DHT22;23627;53.302;-6.362;2022-10-23T02:15:40;13.50;99.90
37788;DHT22;23627;53.302;-6.362;2022-10-23T02:21:11;13.40;99.90
37788;DHT22;23627;53.302;-6.362;2022-10-23T02:23:51;13.50;99.90
37788;DHT22;23627;53.302;-6.362;2022-10-23T02:26:27;13.50;99.90
37788;DHT22;23627;53.302;-6.362;2022-10-23T02:29:09;13.50;99.90
37788;DHT22;23627;53.302;-6.362;2022-10-23T02:31:35;13.50;99.90
37788;DHT22;23627;53.302;-6.362;2022-10-23T02:34:01;13.50;99.90
37788;DHT22;23627;53.302;-6.362;2022-10-23T02:36:27;13.50;99.90
37788;DHT22;23627;53.302;-6.362;2022-10-23T02:38:53;13.50;99.90
37788;DHT22;23627;53.302;-6.362;2022-10-23T02:41:48;13.50;99.90
37788;DHT22;23627;53.302;-6.362;2022-10-23T02:49:43;13.40;99.90
37788;DHT22;23627;53.302;-6.362;2022-10-23T03:00:43;13.40;99.90
37788;DHT22;23627;53.302;-6.362;2022-10-23T03:03:27;13.40;99.90
37788;DHT22;23627;53.302;-6.362;2022-10-23T03:05:55;13.40;99.90
37788;DHT22;23627;53.302;-6.362;2022-10-23T03:08:21;13.40;99.90
37788;DHT22;23627;53.302;-6.362;2022-10-23T03:10:46;13.40;99.90
37788;DHT22;23627;53.302;-6.362;2022-10-23T03:13:12;13.40;99.90
37788;DHT22;23627;53.302;-6.362;2022-10-23T03:15:38;13.40;99.90
37788;DHT22;23627;53.302;-6.362;2022-10-23T03:18:04;13.40;99.90
37788;DHT22;23627;53.302;-6.362;2022-10-23T03:20:29;13.40;99.90
37788;DHT22;23627;53.302;-6.362;2022-10-23T03:22:55;13.40;99.90
37788;DHT22;23627;53.302;-6.362;2022-10-23T03:25:21;13.40;99.90
37788;DHT22;23627;53.302;-6.362;2022-10-23T03:27:46;13.40;99.90
37788;DHT22;23627;53.302;-6.362;2022-10-23T03:30:12;13.40;99.90
37788;DHT22;23627;53.302;-6.362;2022-10-23T03:32:38;13.40;99.90
37788;DHT22;23627;53.302;-6.362;2022-10-23T03:35:04;13.50;99.90
37788;DHT22;23627;53.302;-6.362;2022-10-23T03:37:30;13.50;99.90
37788;DHT22;23627;53.302;-6.362;2022-10-23T03:39:55;13.40;99.90
37788;DHT22;23627;53.302;-6.362;2022-10-23T03:42:21;13.40;99.90
37788;DHT22;23627;53.302;-6.362;2022-10-23T03:44:47;13.50;99.90
37788;DHT22;23627;53.302;-6.362;2022-10-23T03:47:13;13.50;99.90
37788;DHT22;23627;53.302;-6.362;2022-10-23T03:49:39;13.40;99.90
37788;DHT22;23627;53.302;-6.362;2022-10-23T03:52:06;13.50;99.90
37788;DHT22;23627;53.302;-6.362;2022-10-23T03:54:32;13.50;99.90
37788;DHT22;23627;53.302;-6.362;2022-10-23T03:56:58;13.50;99.90
37788;DHT22;23627;53.302;-6.362;2022-10-23T03:59:25;13.60;99.90
37788;DHT22;23627;53.302;-6.362;2022-10-23T04:01:51;13.60;99.90
37788;DHT22;23627;53.302;-6.362;2022-10-23T04:04:16;13.60;99.90
37788;DHT22;23627;53.302;-6.362;2022-10-23T04:06:43;13.60;99.90
37788;DHT22;23627;53.302;-6.362;2022-10-23T04:09:08;13.60;99.90
37788;DHT22;23627;53.302;-6.362;2022-10-23T04:11:34;13.60;99.90
37788;DHT22;23627;53.302;-6.362;2022-10-23T04:14:00;13.60;99.90
37788;DHT22;23627;53.302;-6.362;2022-10-23T04:16:26;13.60;99.90
37788;DHT22;23627;53.302;-6.362;2022-10-23T04:18:52;13.60;99.90
37788;DHT22;23627;53.302;-6.362;2022-10-23T04:21:17;13.50;99.90
37788;DHT22;23627;53.302;-6.362;2022-10-23T04:23:43;13.50;99.90
37788;DHT22;23627;53.302;-6.362;2022-10-23T04:26:09;13.50;99.90
37788;DHT22;23627;53.302;-6.362;2022-10-23T04:28:35;13.50;99.90
37788;DHT22;23627;53.302;-6.362;2022-10-23T04:31:01;13.50;99.90
37788;DHT22;23627;53.302;-6.362;2022-10-23T04:33:26;13.50;99.90
37788;DHT22;23627;53.302;-6.362;2022-10-23T04:35:52;13.50;99.90
37788;DHT22;23627;53.302;-6.362;2022-10-23T04:38:18;13.50;99.90
37788;DHT22;23627;53.302;-6.362;2022-10-23T04:40:44;13.50;99.90
37788;DHT22;23627;53.302;-6.362;2022-10-23T04:43:09;13.50;99.90
37788;DHT22;23627;53.302;-6.362;2022-10-23T04:45:35;13.50;99.90
37788;DHT22;23627;53.302;-6.362;2022-10-23T04:48:01;13.50;99.90
37788;DHT22;23627;53.302;-6.362;2022-10-23T04:50:26;13.50;99.90
37788;DHT22;23627;53.302;-6.362;2022-10-23T04:52:54;13.50;99.90
37788;DHT22;23627;53.302;-6.362;2022-10-23T04:55:20;13.50;99.90
37788;DHT22;23627;53.302;-6.362;2022-10-23T04:57:46;13.50;99.90
37788;DHT22;23627;53.302;-6.362;2022-10-23T05:00:13;13.50;99.90
37788;DHT22;23627;53.302;-6.362;2022-10-23T05:02:40;13.50;99.90
37788;DHT22;23627;53.302;-6.362;2022-10-23T05:05:06;13.50;99.90
37788;DHT22;23627;53.302;-6.362;2022-10-23T05:07:33;13.50;99.90
37788;DHT22;23627;53.302;-6.362;2022-10-23T05:09:59;13.50;99.90
37788;DHT22;23627;53.302;-6.362;2022-10-23T05:12:25;13.50;99.90
37788;DHT22;23627;53.302;-6.362;2022-10-23T05:14:52;13.50;99.90
37788;DHT22;23627;53.302;-6.362;2022-10-23T05:17:25;13.50;99.90
37788;DHT22;23627;53.302;-6.362;2022-10-23T05:19:54;13.50;99.90
37788;DHT22;23627;53.302;-6.362;2022-10-23T05:22:23;13.50;99.90
37788;DHT22;23627;53.302;-6.362;2022-10-23T05:24:50;13.60;99.90
37788;DHT22;23627;53.302;-6.362;2022-10-23T05:27:15;13.60;99.90
37788;DHT22;23627;53.302;-6.362;2022-10-23T05:29:41;13.60;99.90
37788;DHT22;23627;53.302;-6.362;2022-10-23T05:32:09;13.60;99.90
37788;DHT22;23627;53.302;-6.362;2022-10-23T05:34:37;13.60;99.90
37788;DHT22;23627;53.302;-6.362;2022-10-23T05:37:05;13.50;99.90
37788;DHT22;23627;53.302;-6.362;2022-10-23T05:39:32;13.50;99.90
37788;DHT22;23627;53.302;-6.362;2022-10-23T05:41:58;13.60;99.90
37788;DHT22;23627;53.302;-6.362;2022-10-23T05:44:24;13.60;99.90
37788;DHT22;23627;53.302;-6.362;2022-10-23T05:46:50;13.50;99.90
37788;DHT22;23627;53.302;-6.362;2022-10-23T05:49:15;13.50;99.90
37788;DHT22;23627;53.302;-6.362;2022-10-23T05:51:41;13.60;99.90
37788;DHT22;23627;53.302;-6.362;2022-10-23T05:54:07;13.60;99.90
37788;DHT22;23627;53.302;-6.362;2022-10-23T05:56:37;13.60;99.90
37788;DHT22;23627;53.302;-6.362;2022-10-23T05:59:03;13.60;99.90
37788;DHT22;23627;53.302;-6.362;2022-10-23T06:01:29;13.60;99.90
37788;DHT22;23627;53.302;-6.362;2022-10-23T06:03:55;13.60;99.90
37788;DHT22;23627;53.302;-6.362;2022-10-23T06:06:22;13.60;99.90
37788;DHT22;23627;53.302;-6.362;2022-10-23T06:08:48;13.60;99.90
37788;DHT22;23627;53.302;-6.362;2022-10-23T06:11:14;13.60;99.90
37788;DHT22;23627;53.302;-6.362;2022-10-23T06:13:44;13.70;99.90
37788;DHT22;23627;53.302;-6.362;2022-10-23T06:16:13;13.60;99.90
37788;DHT22;23627;53.302;-6.362;2022-10-23T06:18:39;13.60;99.90
37788;DHT22;23627;53.302;-6.362;2022-10-23T06:21:06;13.70;99.90
37788;DHT22;23627;53.302;-6.362;2022-10-23T06:23:33;13.70;99.90
37788;DHT22;23627;53.302;-6.362;2022-10-23T06:25:59;13.70;99.90
37788;DHT22;23627;53.302;-6.362;2022-10-23T06:28:25;13.70;99.90
37788;DHT22;23627;53.302;-6.362;2022-10-23T06:30:51;13.70;99.90
37788;DHT22;23627;53.302;-6.362;2022-10-23T06:33:17;13.70;99.90
37788;DHT22;23627;53.302;-6.362;2022-10-23T06:35:43;13.70;99.90
37788;DHT22;23627;53.302;-6.362;2022-10-23T06:38:09;13.70;99.90
37788;DHT22;23627;53.302;-6.362;2022-10-23T06:40:36;13.80;99.90
37788;DHT22;23627;53.302;-6.362;2022-10-23T06:43:03;13.70;99.90
37788;DHT22;23627;53.302;-6.362;2022-10-23T06:45:29;13.80;99.90
37788;DHT22;23627;53.302;-6.362;2022-10-23T06:47:57;13.70;99.90
37788;DHT22;23627;53.302;-6.362;2022-10-23T06:50:23;13.80;99.90
37788;DHT22;23627;53.302;-6.362;2022-10-23T06:52:49;13.80;99.90
37788;DHT22;23627;53.302;-6.362;2022-10-23T06:55:16;13.80;99.90
37788;DHT22;23627;53.302;-6.362;2022-10-23T06:57:42;13.80;99.90
37788;DHT22;23627;53.302;-6.362;2022-10-23T07:00:08;13.80;99.90
37788;DHT22;23627;53.302;-6.362;2022-10-23T07:02:34;13.80;99.90
37788;DHT22;23627;53.302;-6.362;2022-10-23T07:05:00;13.80;99.90
37788;DHT22;23627;53.302;-6.362;2022-10-23T07:07:28;13.80;99.90
37788;DHT22;23627;53.302;-6.362;2022-10-23T07:09:54;13.70;99.90
37788;DHT22;23627;53.302;-6.362;2022-10-23T07:12:20;13.80;99.90
37788;DHT22;23627;53.302;-6.362;2022-10-23T07:14:46;13.70;99.90
37788;DHT22;23627;53.302;-6.362;2022-10-23T07:17:11;13.80;99.90
37788;DHT22;23627;53.302;-6.362;2022-10-23T07:19:37;13.80;99.90
37788;DHT22;23627;53.302;-6.362;2022-10-23T07:22:03;13.80;99.90
37788;DHT22;23627;53.302;-6.362;2022-10-23T07:24:29;13.80;99.90
37788;DHT22;23627;53.302;-6.362;2022-10-23T07:26:57;13.80;99.90
37788;DHT22;23627;53.302;-6.362;2022-10-23T07:29:23;13.70;99.90
37788;DHT22;23627;53.302;-6.362;2022-10-23T07:31:48;13.70;99.90
37788;DHT22;23627;53.302;-6.362;2022-10-23T07:34:14;13.80;99.90
37788;DHT22;23627;53.302;-6.362;2022-10-23T07:36:40;13.80;99.90
37788;DHT22;23627;53.302;-6.362;2022-10-23T07:39:06;13.80;99.90
37788;DHT22;23627;53.302;-6.362;2022-10-23T07:41:32;13.80;99.90
37788;DHT22;23627;53.302;-6.362;2022-10-23T07:43:57;13.80;99.90
37788;DHT22;23627;53.302;-6.362;2022-10-23T07:46:23;13.70;99.90
37788;DHT22;23627;53.302;-6.362;2022-10-23T07:48:49;13.80;99.90
37788;DHT22;23627;53.302;-6.362;2022-10-23T07:51:15;13.70;99.90
37788;DHT22;23627;53.302;-6.362;2022-10-23T07:53:42;13.70;99.90
37788;DHT22;23627;53.302;-6.362;2022-10-23T07:56:17;13.80;99.90
37788;DHT22;23627;53.302;-6.362;2022-10-23T07:58:45;13.80;99.90
37788;DHT22;23627;53.302;-6.362;2022-10-23T08:01:23;13.80;99.90
37788;DHT22;23627;53.302;-6.362;2022-10-23T08:03:50;13.80;99.90
37788;DHT22;23627;53.302;-6.362;2022-10-23T08:06:16;13.80;99.90
37788;DHT22;23627;53.302;-6.362;2022-10-23T08:08:42;13.80;99.90
37788;DHT22;23627;53.302;-6.362;2022-10-23T08:11:11;13.70;99.90
37788;DHT22;23627;53.302;-6.362;2022-10-23T08:13:37;13.80;99.90
37788;DHT22;23627;53.302;-6.362;2022-10-23T08:16:03;13.80;99.90
37788;DHT22;23627;53.302;-6.362;2022-10-23T08:18:29;13.80;99.90
37788;DHT22;23627;53.302;-6.362;2022-10-23T08:21:00;13.80;99.90
37788;DHT22;23627;53.302;-6.362;2022-10-23T08:23:25;13.80;99.90
37788;DHT22;23627;53.302;-6.362;2022-10-23T08:25:57;13.80;99.90
37788;DHT22;23627;53.302;-6.362;2022-10-23T08:28:23;13.90;99.90
37788;DHT22;23627;53.302;-6.362;2022-10-23T08:30:49;13.90;99.90
37788;DHT22;23627;53.302;-6.362;2022-10-23T08:33:14;13.80;99.90
37788;DHT22;23627;53.302;-6.362;2022-10-23T08:35:40;13.80;99.90
37788;DHT22;23627;53.302;-6.362;2022-10-23T08:38:06;13.80;99.90
37788;DHT22;23627;53.302;-6.362;2022-10-23T08:40:34;13.80;99.90
37788;DHT22;23627;53.302;-6.362;2022-10-23T08:48:19;13.80;99.90
37788;DHT22;23627;53.302;-6.362;2022-10-23T08:50:51;13.90;99.90
37788;DHT22;23627;53.302;-6.362;2022-10-23T08:53:26;13.90;99.90
37788;DHT22;23627;53.302;-6.362;2022-10-23T08:56:01;13.90;99.90
37788;DHT22;23627;53.302;-6.362;2022-10-23T08:58:42;13.90;99.90
37788;DHT22;23627;53.302;-6.362;2022-10-23T09:03:49;13.90;99.90
37788;DHT22;23627;53.302;-6.362;2022-10-23T09:06:24;13.90;99.90
37788;DHT22;23627;53.302;-6.362;2022-10-23T09:11:47;13.90;99.90
37788;DHT22;23627;53.302;-6.362;2022-10-23T09:19:46;13.90;99.90
37788;DHT22;23627;53.302;-6.362;2022-10-23T09:22:15;13.90;99.90
37788;DHT22;23627;53.302;-6.362;2022-10-23T09:24:42;13.90;99.90
37788;DHT22;23627;53.302;-6.362;2022-10-23T09:27:16;13.90;99.90
37788;DHT22;23627;53.302;-6.362;2022-10-23T09:29:51;13.90;99.90
37788;DHT22;23627;53.302;-6.362;2022-10-23T09:32:18;14.00;99.90
37788;DHT22;23627;53.302;-6.362;2022-10-23T09:34:54;14.00;99.90
37788;DHT22;23627;53.302;-6.362;2022-10-23T09:37:25;14.10;99.90
37788;DHT22;23627;53.302;-6.362;2022-10-23T09:40:17;14.10;99.90
37788;DHT22;23627;53.302;-6.362;2022-10-23T09:42:54;14.20;99.90
37788;DHT22;23627;53.302;-6.362;2022-10-23T09:45:32;14.20;99.90
37788;DHT22;23627;53.302;-6.362;2022-10-23T09:48:05;14.30;99.90
37788;DHT22;23627;53.302;-6.362;2022-10-23T09:50:34;14.30;99.90
37788;DHT22;23627;53.302;-6.362;2022-10-23T09:53:00;14.30;99.90
37788;DHT22;23627;53.302;-6.362;2022-10-23T09:55:26;14.30;99.90
37788;DHT22;23627;53.302;-6.362;2022-10-23T09:57:53;14.40;99.90
37788;DHT22;23627;53.302;-6.362;2022-10-23T10:00:22;14.40;99.90
37788;DHT22;23627;53.302;-6.362;2022-10-23T10:03:17;14.50;99.90
37788;DHT22;23627;53.302;-6.362;2022-10-23T10:05:43;14.60;99.90
37788;DHT22;23627;53.302;-6.362;2022-10-23T10:08:35;14.70;99.90
37788;DHT22;23627;53.302;-6.362;2022-10-23T10:14:01;14.90;99.90
37788;DHT22;23627;53.302;-6.362;2022-10-23T10:16:40;15.00;99.90
37788;DHT22;23627;53.302;-6.362;2022-10-23T10:22:34;15.20;99.90
37788;DHT22;23627;53.302;-6.362;2022-10-23T10:25:16;15.20;99.90
37788;DHT22;23627;53.302;-6.362;2022-10-23T10:33:34;15.50;99.90
37788;DHT22;23627;53.302;-6.362;2022-10-23T10:39:00;15.70;99.90
37788;DHT22;23627;53.302;-6.362;2022-10-23T10:47:00;15.90;99.90
37788;DHT22;23627;53.302;-6.362;2022-10-23T10:49:37;16.00;99.90
37788;DHT22;23627;53.302;-6.362;2022-10-23T10:52:19;16.00;99.90
37788;DHT22;23627;53.302;-6.362;2022-10-23T10:55:09;16.10;99.90
37788;DHT22;23627;53.302;-6.362;2022-10-23T10:57:42;16.20;99.90
37788;DHT22;23627;53.302;-6.362;2022-10-23T11:00:20;16.30;99.90
37788;DHT22;23627;53.302;-6.362;2022-10-23T11:02:48;16.40;99.90
37788;DHT22;23627;53.302;-6.362;2022-10-23T11:08:11;16.60;99.90
37788;DHT22;23627;53.302;-6.362;2022-10-23T11:10:43;16.70;99.90
37788;DHT22;23627;53.302;-6.362;2022-10-23T11:13:37;16.70;99.90
37788;DHT22;23627;53.302;-6.362;2022-10-23T11:21:57;17.00;99.90
37788;DHT22;23627;53.302;-6.362;2022-10-23T11:24:50;17.10;99.90
37788;DHT22;23627;53.302;-6.362;2022-10-23T11:32:53;17.00;99.90
37788;DHT22;23627;53.302;-6.362;2022-10-23T11:40:32;17.10;99.90
37788;DHT22;23627;53.302;-6.362;2022-10-23T11:42:58;17.00;99.90
37788;DHT22;23627;53.302;-6.362;2022-10-23T11:45:29;17.00;99.90
37788;DHT22;23627;53.302;-6.362;2022-10-23T11:48:20;17.00;99.90
37788;DHT22;23627;53.302;-6.362;2022-10-23T11:58:26;17.00;99.90
37788;DHT22;23627;53.302;-6.362;2022-10-23T12:01:00;17.00;99.90
37788;DHT22;23627;53.302;-6.362;2022-10-23T12:03:46;17.10;99.90
37788;DHT22;23627;53.302;-6.362;2022-10-23T12:06:21;17.20;99.90
37788;DHT22;23627;53.302;-6.362;2022-10-23T12:08:51;17.20;99.90
37788;DHT22;23627;53.302;-6.362;2022-10-23T12:11:28;17.20;99.90
37788;DHT22;23627;53.302;-6.362;2022-10-23T12:14:03;17.20;99.90
37788;DHT22;23627;53.302;-6.362;2022-10-23T12:16:35;17.10;99.90
37788;DHT22;23627;53.302;-6.362;2022-10-23T12:19:17;17.10;99.90
37788;DHT22;23627;53.302;-6.362;2022-10-23T12:21:44;17.20;99.90
37788;DHT22;23627;53.302;-6.362;2022-10-23T12:38:12;17.20;99.90
37788;DHT22;23627;53.302;-6.362;2022-10-23T12:40:43;17.30;99.90
37788;DHT22;23627;53.302;-6.362;2022-10-23T12:45:50;17.40;99.90
37788;DHT22;23627;53.302;-6.362;2022-10-23T12:48:20;17.40;99.90
37788;DHT22;23627;53.302;-6.362;2022-10-23T12:50:52;17.40;99.90
37788;DHT22;23627;53.302;-6.362;2022-10-23T12:53:20;17.40;99.90
37788;DHT22;23627;53.302;-6.362;2022-10-23T12:55:59;17.40;99.90
37788;DHT22;23627;53.302;-6.362;2022-10-23T12:58:31;17.40;99.90
37788;DHT22;23627;53.302;-6.362;2022-10-23T13:01:03;17.30;99.90
37788;DHT22;23627;53.302;-6.362;2022-10-23T13:03:31;17.30;99.90
37788;DHT22;23627;53.302;-6.362;2022-10-23T13:05:59;17.30;99.90
37788;DHT22;23627;53.302;-6.362;2022-10-23T13:08:36;17.40;99.90
37788;DHT22;23627;53.302;-6.362;2022-10-23T13:11:04;17.40;99.90
37788;DHT22;23627;53.302;-6.362;2022-10-23T13:13:30;17.40;99.90
37788;DHT22;23627;53.302;-6.362;2022-10-23T13:15:56;17.40;99.90
37788;DHT22;23627;53.302;-6.362;2022-10-23T13:18:22;17.40;99.90
37788;DHT22;23627;53.302;-6.362;2022-10-23T13:23:31;17.40;99.90
37788;DHT22;23627;53.302;-6.362;2022-10-23T13:25:59;17.40;99.90
37788;DHT22;23627;53.302;-6.362;2022-10-23T13:28:33;17.30;99.90
37788;DHT22;23627;53.302;-6.362;2022-10-23T13:31:32;17.30;99.90
37788;DHT22;23627;53.302;-6.362;2022-10-23T13:36:24;17.20;99.90
37788;DHT22;23627;53.302;-6.362;2022-10-23T13:41:25;17.10;99.90
37788;DHT22;23627;53.302;-6.362;2022-10-23T13:43:51;17.10;99.90
37788;DHT22;23627;53.302;-6.362;2022-10-23T13:46:19;17.10;99.90
37788;DHT22;23627;53.302;-6.362;2022-10-23T13:48:45;17.00;99.90
37788;DHT22;23627;53.302;-6.362;2022-10-23T13:51:19;17.10;99.90
37788;DHT22;23627;53.302;-6.362;2022-10-23T13:53:46;17.00;99.90
37788;DHT22;23627;53.302;-6.362;2022-10-23T13:56:13;17.00;99.90
37788;DHT22;23627;53.302;-6.362;2022-10-23T13:58:39;17.10;99.90
37788;DHT22;23627;53.302;-6.362;2022-10-23T14:01:06;17.10;99.90
37788;DHT22;23627;53.302;-6.362;2022-10-23T14:03:36;17.10;99.90
37788;DHT22;23627;53.302;-6.362;2022-10-23T14:06:02;17.10;99.90
37788;DHT22;23627;53.302;-6.362;2022-10-23T14:08:28;17.10;99.90
37788;DHT22;23627;53.302;-6.362;2022-10-23T14:10:53;17.10;99.90
37788;DHT22;23627;53.302;-6.362;2022-10-23T14:13:19;17.10;99.90
37788;DHT22;23627;53.302;-6.362;2022-10-23T14:15:54;17.10;99.90
37788;DHT22;23627;53.302;-6.362;2022-10-23T14:18:21;17.10;99.90
37788;DHT22;23627;53.302;-6.362;2022-10-23T14:20:46;17.10;99.90
37788;DHT22;23627;53.302;-6.362;2022-10-23T14:23:12;17.10;99.90
37788;DHT22;23627;53.302;-6.362;2022-10-23T14:25:38;17.10;99.90
37788;DHT22;23627;53.302;-6.362;2022-10-23T14:28:04;17.10;99.90
37788;DHT22;23627;53.302;-6.362;2022-10-23T14:30:29;17.10;99.90
37788;DHT22;23627;53.302;-6.362;2022-10-23T14:32:55;17.10;99.90
37788;DHT22;23627;53.302;-6.362;2022-10-23T14:35:21;17.10;99.90
37788;DHT22;23627;53.302;-6.362;2022-10-23T14:37:47;17.00;99.90
37788;DHT22;23627;53.302;-6.362;2022-10-23T14:40:12;17.10;99.90
37788;DHT22;23627;53.302;-6.362;2022-10-23T14:42:38;17.10;99.90
37788;DHT22;23627;53.302;-6.362;2022-10-23T14:45:04;17.00;99.90
37788;DHT22;23627;53.302;-6.362;2022-10-23T14:47:31;17.00;99.90
37788;DHT22;23627;53.302;-6.362;2022-10-23T14:49:57;17.00;99.90
37788;DHT22;23627;53.302;-6.362;2022-10-23T14:52:23;17.00;99.90
37788;DHT22;23627;53.302;-6.362;2022-10-23T14:54:52;17.00;99.90
37788;DHT22;23627;53.302;-6.362;2022-10-23T14:57:19;17.00;99.90
37788;DHT22;23627;53.302;-6.362;2022-10-23T14:59:46;17.00;99.90
37788;DHT22;23627;53.302;-6.362;2022-10-23T15:02:13;16.90;99.90
37788;DHT22;23627;53.302;-6.362;2022-10-23T15:04:39;16.90;99.90
37788;DHT22;23627;53.302;-6.362;2022-10-23T15:07:05;16.90;99.90
37788;DHT22;23627;53.302;-6.362;2022-10-23T15:09:30;16.90;99.90
37788;DHT22;23627;53.302;-6.362;2022-10-23T15:12:02;16.80;99.90
37788;DHT22;23627;53.302;-6.362;2022-10-23T15:14:28;16.80;99.90
37788;DHT22;23627;53.302;-6.362;2022-10-23T15:16:53;16.80;99.90
37788;DHT22;23627;53.302;-6.362;2022-10-23T15:19:19;16.80;99.90
37788;DHT22;23627;53.302;-6.362;2022-10-23T15:21:48;16.70;99.90
37788;DHT22;23627;53.302;-6.362;2022-10-23T15:24:15;16.70;99.90
37788;DHT22;23627;53.302;-6.362;2022-10-23T15:26:41;16.60;99.90
37788;DHT22;23627;53.302;-6.362;2022-10-23T15:29:08;16.50;99.90
37788;DHT22;23627;53.302;-6.362;2022-10-23T15:34:06;16.50;99.90
37788;DHT22;23627;53.302;-6.362;2022-10-23T15:36:33;16.50;99.90
37788;DHT22;23627;53.302;-6.362;2022-10-23T15:38:59;16.50;99.90
37788;DHT22;23627;53.302;-6.362;2022-10-23T15:41:32;16.50;99.90
37788;DHT22;23627;53.302;-6.362;2022-10-23T15:43:59;16.50;99.90
37788;DHT22;23627;53.302;-6.362;2022-10-23T15:46:26;16.50;99.90
37788;DHT22;23627;53.302;-6.362;2022-10-23T15:48:52;16.50;99.90
37788;DHT22;23627;53.302;-6.362;2022-10-23T15:51:18;16.50;99.90
37788;DHT22;23627;53.302;-6.362;2022-10-23T15:53:43;16.50;99.90
37788;DHT22;23627;53.302;-6.362;2022-10-23T15:56:09;16.50;99.90
37788;DHT22;23627;53.302;-6.362;2022-10-23T15:58:35;16.40;99.90
37788;DHT22;23627;53.302;-6.362;2022-10-23T16:01:02;16.40;99.90
37788;DHT22;23627;53.302;-6.362;2022-10-23T16:03:31;16.30;99.90
37788;DHT22;23627;53.302;-6.362;2022-10-23T16:05:57;16.30;99.90
37788;DHT22;23627;53.302;-6.362;2022-10-23T16:08:23;16.20;99.90
37788;DHT22;23627;53.302;-6.362;2022-10-23T16:10:50;16.20;99.90
37788;DHT22;23627;53.302;-6.362;2022-10-23T16:13:16;16.10;99.90
37788;DHT22;23627;53.302;-6.362;2022-10-23T16:15:42;16.10;99.90
37788;DHT22;23627;53.302;-6.362;2022-10-23T16:18:08;16.00;99.90
37788;DHT22;23627;53.302;-6.362;2022-10-23T16:20:36;16.00;99.90
37788;DHT22;23627;53.302;-6.362;2022-10-23T16:23:03;15.90;99.90
37788;DHT22;23627;53.302;-6.362;2022-10-23T16:25:29;15.90;99.90
37788;DHT22;23627;53.302;-6.362;2022-10-23T16:27:57;15.80;99.90
37788;DHT22;23627;53.302;-6.362;2022-10-23T16:30:23;15.70;99.90
37788;DHT22;23627;53.302;-6.362;2022-10-23T16:32:49;15.60;99.90
37788;DHT22;23627;53.302;-6.362;2022-10-23T16:35:15;15.60;99.90
37788;DHT22;23627;53.302;-6.362;2022-10-23T16:37:41;15.50;99.90
37788;DHT22;23627;53.302;-6.362;2022-10-23T16:40:07;15.50;99.90
37788;DHT22;23627;53.302;-6.362;2022-10-23T16:42:33;15.40;99.90
37788;DHT22;23627;53.302;-6.362;2022-10-23T16:44:58;15.40;99.90
37788;DHT22;23627;53.302;-6.362;2022-10-23T16:47:24;15.30;99.90
37788;DHT22;23627;53.302;-6.362;2022-10-23T16:49:50;15.30;99.90
37788;DHT22;23627;53.302;-6.362;2022-10-23T16:52:16;15.30;99.90
37788;DHT22;23627;53.302;-6.362;2022-10-23T16:54:42;15.20;99.90
37788;DHT22;23627;53.302;-6.362;2022-10-23T16:57:08;15.10;99.90
37788;DHT22;23627;53.302;-6.362;2022-10-23T16:59:34;15.10;99.90
37788;DHT22;23627;53.302;-6.362;2022-10-23T17:02:00;15.10;99.90
37788;DHT22;23627;53.302;-6.362;2022-10-23T17:04:25;15.00;99.90
37788;DHT22;23627;53.302;-6.362;2022-10-23T17:06:51;15.00;99.90
37788;DHT22;23627;53.302;-6.362;2022-10-23T17:09:17;15.00;99.90
37788;DHT22;23627;53.302;-6.362;2022-10-23T17:11:44;15.00;99.90
37788;DHT22;23627;53.302;-6.362;2022-10-23T17:14:16;15.00;99.90
37788;DHT22;23627;53.302;-6.362;2022-10-23T17:16:48;14.90;99.90
37788;DHT22;23627;53.302;-6.362;2022-10-23T17:19:16;14.80;99.90
37788;DHT22;23627;53.302;-6.362;2022-10-23T17:21:42;14.80;99.90
37788;DHT22;23627;53.302;-6.362;2022-10-23T17:24:09;14.70;99.90
37788;DHT22;23627;53.302;-6.362;2022-10-23T17:26:36;14.60;99.90
37788;DHT22;23627;53.302;-6.362;2022-10-23T17:29:05;14.60;99.90